createdAt,value
2018-08-16T00:00:44.474Z,101418.41
2018-08-16T00:03:13.734Z,101413.64
2018-08-16T00:05:43.309Z,101406.90
2018-08-16T00:08:12.675Z,101407.91
2018-08-16T00:10:42.005Z,101401.03
2018-08-16T00:13:11.349Z,101402.70
2018-08-16T00:15:40.605Z,101405.09
2018-08-16T00:18:10.487Z,101407.07
2018-08-16T00:20:39.792Z,101409.13
2018-08-16T00:23:09.145Z,101403.23
2018-08-16T00:25:40.195Z,101405.75
2018-08-16T00:28:09.556Z,101405.34
2018-08-16T00:30:39.013Z,101407.31
2018-08-16T00:33:08.976Z,101405.95
2018-08-16T00:35:38.334Z,101403.59
2018-08-16T00:38:08.120Z,101403.37
2018-08-16T00:40:37.501Z,101407.47
2018-08-16T00:43:07.119Z,101408.94
2018-08-16T00:45:36.747Z,101406.54
2018-08-16T00:48:06.857Z,101412.11
2018-08-16T00:50:36.569Z,101406.50
2018-08-16T00:53:06.258Z,101406.84
2018-08-16T00:55:35.773Z,101409.83
2018-08-16T00:58:05.579Z,101400.08
2018-08-16T01:00:34.998Z,101402.70
2018-08-16T01:03:04.406Z,101398.52
2018-08-16T01:05:33.834Z,101392.18
2018-08-16T01:08:03.351Z,101394.69
2018-08-16T01:10:34.085Z,101389.78
2018-08-16T01:13:03.557Z,101386.37
2018-08-16T01:15:32.950Z,101385.37
2018-08-16T01:18:02.516Z,101386.14
2018-08-16T01:20:33.079Z,101385.79
2018-08-16T01:23:02.578Z,101387.80
2018-08-16T01:25:32.251Z,101387.25
2018-08-16T01:28:01.709Z,101388.88
2018-08-16T01:30:31.261Z,101376.27
2018-08-16T01:33:00.753Z,101386.55
2018-08-16T01:35:30.310Z,101383.27
2018-08-16T01:37:59.812Z,101390.03
2018-08-16T01:40:29.235Z,101386.05
2018-08-16T01:42:58.776Z,101386.82
2018-08-16T01:45:28.228Z,101390.61
2018-08-16T01:47:58.590Z,101397.64
2018-08-16T01:50:28.085Z,101391.53
2018-08-16T01:52:58.507Z,101393.39
2018-08-16T01:55:28.216Z,101392.08
2018-08-16T01:57:57.841Z,101388.83
2018-08-16T02:00:27.350Z,101388.33
2018-08-16T02:02:57.395Z,101384.37
2018-08-16T02:05:26.779Z,101387.34
2018-08-16T02:07:56.999Z,101390.20
2018-08-16T02:10:26.776Z,101387.59
2018-08-16T02:12:57.325Z,101386.44
2018-08-16T02:15:28.168Z,101387.02
2018-08-16T02:17:57.645Z,101385.16
2018-08-16T02:20:28.089Z,101385.74
2018-08-16T02:22:57.707Z,101389.30
2018-08-16T02:25:27.163Z,101385.59
2018-08-16T02:27:56.940Z,101387.64
2018-08-16T02:30:26.503Z,101383.59
2018-08-16T02:32:55.802Z,101384.94
2018-08-16T02:35:25.442Z,101383.63
2018-08-16T02:37:54.834Z,101381.58
2018-08-16T02:40:24.219Z,101376.02
2018-08-16T02:42:53.561Z,101378.88
2018-08-16T02:45:22.894Z,101383.72
2018-08-16T02:47:52.161Z,101374.89
2018-08-16T02:50:21.463Z,101380.23
2018-08-16T02:52:50.869Z,101379.17
2018-08-16T02:55:20.133Z,101380.20
2018-08-16T02:57:49.437Z,101382.45
2018-08-16T03:00:18.843Z,101379.89
2018-08-16T03:02:48.218Z,101375.98
2018-08-16T03:05:17.593Z,101369.72
2018-08-16T03:07:46.904Z,101379.34
2018-08-16T03:10:16.276Z,101375.13
2018-08-16T03:12:46.323Z,101373.58
2018-08-16T03:15:16.234Z,101377.84
2018-08-16T03:17:45.713Z,101376.44
2018-08-16T03:20:15.065Z,101369.79
2018-08-16T03:22:44.430Z,101367.73
2018-08-16T03:25:13.767Z,101362.97
2018-08-16T03:27:43.066Z,101360.27
2018-08-16T03:30:12.492Z,101369.03
2018-08-16T03:32:41.793Z,101365.33
2018-08-16T03:35:11.243Z,101366.83
2018-08-16T03:37:40.786Z,101365.27
2018-08-16T03:40:10.230Z,101360.78
2018-08-16T03:42:39.622Z,101366.63
2018-08-16T03:45:09.263Z,101359.42
2018-08-16T03:47:38.821Z,101355.47
2018-08-16T03:50:08.940Z,101357.55
2018-08-16T03:52:38.553Z,101353.64
2018-08-16T03:55:07.924Z,101349.79
2018-08-16T03:57:37.560Z,101357.50
2018-08-16T04:00:07.631Z,101359.76
2018-08-16T04:02:37.166Z,101363.17
2018-08-16T04:05:07.103Z,101354.09
2018-08-16T04:07:36.530Z,101352.89
2018-08-16T04:10:05.952Z,101348.73
2018-08-16T04:12:35.812Z,101350.45
2018-08-16T04:15:05.470Z,101342.07
2018-08-16T04:17:36.561Z,101348.89
2018-08-16T04:20:07.085Z,101347.73
2018-08-16T04:22:36.738Z,101343.62
2018-08-16T04:25:06.055Z,101340.41
2018-08-16T04:27:35.581Z,101338.48
2018-08-16T04:30:06.142Z,101341.32
2018-08-16T04:32:35.466Z,101339.91
2018-08-16T04:35:06.563Z,101335.56
2018-08-16T04:37:36.249Z,101345.12
2018-08-16T04:40:05.864Z,101339.94
2018-08-16T04:42:35.227Z,101335.88
2018-08-16T04:45:06.174Z,101335.44
2018-08-16T04:47:35.555Z,101345.25
2018-08-16T04:50:06.692Z,101344.25
2018-08-16T04:52:36.113Z,101338.58
2018-08-16T04:55:06.519Z,101346.17
2018-08-16T04:57:36.584Z,101346.22
2018-08-16T05:00:08.069Z,101343.21
2018-08-16T05:02:37.429Z,101333.80
2018-08-16T05:05:07.121Z,101337.75
2018-08-16T05:07:36.725Z,101330.48
2018-08-16T05:10:07.753Z,101332.88
2018-08-16T05:12:37.153Z,101339.61
2018-08-16T05:15:09.358Z,101337.83
2018-08-16T05:17:38.741Z,101336.67
2018-08-16T05:20:11.321Z,101335.13
2018-08-16T05:22:40.733Z,101332.52
2018-08-16T05:25:10.114Z,101332.31
2018-08-16T05:27:39.823Z,101330.05
2018-08-16T05:30:11.300Z,101330.75
2018-08-16T05:32:40.793Z,101329.05
2018-08-16T05:35:10.205Z,101325.71
2018-08-16T05:37:39.619Z,101331.98
2018-08-16T05:40:10.427Z,101330.31
2018-08-16T05:42:41.186Z,101331.80
2018-08-16T05:45:10.981Z,101334.91
2018-08-16T05:47:41.296Z,101327.97
2018-08-16T05:50:12.253Z,101327.49
2018-08-16T05:52:42.355Z,101321.41
2018-08-16T05:55:11.856Z,101331.91
2018-08-16T05:57:41.210Z,101322.83
2018-08-16T06:00:13.981Z,101332.57
2018-08-16T06:02:43.301Z,101324.17
2018-08-16T06:05:12.865Z,101328.19
2018-08-16T06:07:42.386Z,101325.53
2018-08-16T06:10:11.562Z,101321.97
2018-08-16T06:12:40.991Z,101326.46
2018-08-16T06:15:11.258Z,101328.84
2018-08-16T06:17:40.736Z,101334.03
2018-08-16T06:20:11.827Z,101326.00
2018-08-16T06:22:41.521Z,101324.25
2018-08-16T06:25:12.792Z,101322.80
2018-08-16T06:27:42.474Z,101320.48
2018-08-16T06:30:14.185Z,101315.84
2018-08-16T06:32:44.309Z,101315.72
2018-08-16T06:35:13.574Z,101313.59
2018-08-16T06:37:43.217Z,101309.07
2018-08-16T06:40:15.136Z,101310.13
2018-08-16T06:42:45.037Z,101301.31
2018-08-16T06:45:14.517Z,101303.93
2018-08-16T06:47:43.869Z,101299.86
2018-08-16T06:50:13.162Z,101300.12
2018-08-16T06:52:42.745Z,101283.27
2018-08-16T06:55:12.335Z,101285.00
2018-08-16T06:57:41.681Z,101282.25
2018-08-16T07:00:11.035Z,101282.28
2018-08-16T07:02:40.488Z,101279.77
2018-08-16T07:05:09.906Z,101282.69
2018-08-16T07:07:39.238Z,101284.09
2018-08-16T07:10:10.698Z,101283.77
2018-08-16T07:12:41.044Z,101273.62
2018-08-16T07:15:15.253Z,101277.48
2018-08-16T07:17:45.392Z,101271.34
2018-08-16T07:20:14.804Z,101271.50
2018-08-16T07:22:44.104Z,101272.55
2018-08-16T07:25:13.523Z,101270.01
2018-08-16T07:27:42.870Z,101267.75
2018-08-16T07:30:34.104Z,101271.66
2018-08-16T07:33:03.809Z,101269.77
2018-08-16T07:35:33.402Z,101263.30
2018-08-16T07:38:03.247Z,101270.75
2018-08-16T07:40:33.032Z,101264.94
2018-08-16T07:43:02.464Z,101265.61
2018-08-16T07:45:32.058Z,101255.95
2018-08-16T07:48:01.678Z,101252.91
2018-08-16T07:50:31.200Z,101257.84
2018-08-16T07:53:01.030Z,101261.60
2018-08-16T07:55:30.500Z,101269.64
2018-08-16T07:58:00.029Z,101270.95
2018-08-16T08:00:29.922Z,101268.72
2018-08-16T08:02:59.625Z,101267.97
2018-08-16T08:05:29.280Z,101266.27
2018-08-16T08:07:58.793Z,101263.91
2018-08-16T08:10:28.593Z,101266.25
2018-08-16T08:12:58.214Z,101263.60
2018-08-16T08:15:28.306Z,101268.53
2018-08-16T08:17:57.791Z,101260.65
2018-08-16T08:20:27.272Z,101260.86
2018-08-16T08:22:56.792Z,101264.56
2018-08-16T08:25:26.472Z,101254.14
2018-08-16T08:27:55.914Z,101250.38
2018-08-16T08:30:25.277Z,101251.43
2018-08-16T08:32:54.620Z,101255.95
2018-08-16T08:35:23.945Z,101247.86
2018-08-16T08:38:02.253Z,101249.08
2018-08-16T08:40:31.907Z,101254.16
2018-08-16T08:43:01.464Z,101253.44
2018-08-16T08:45:31.017Z,101248.49
2018-08-16T08:48:00.584Z,101248.56
2018-08-16T08:50:30.361Z,101252.97
2018-08-16T08:53:11.008Z,101242.53
2018-08-16T08:55:51.526Z,101240.34
2018-08-16T08:58:32.294Z,101228.52
2018-08-16T09:01:02.091Z,101227.39
2018-08-16T09:03:31.619Z,101225.33
2018-08-16T09:06:01.171Z,101223.25
2018-08-16T09:08:30.726Z,101217.55
2018-08-16T09:11:18.088Z,101220.50
2018-08-16T09:14:00.938Z,101213.93
2018-08-16T09:16:34.473Z,101217.55
2018-08-16T09:19:04.667Z,101209.33
2018-08-16T09:21:34.633Z,101213.31
2018-08-16T09:24:04.242Z,101200.93
2018-08-16T09:26:41.026Z,101207.44
2018-08-16T09:29:30.928Z,101208.00
2018-08-16T09:33:09.967Z,101185.06
2018-08-16T09:35:39.737Z,101195.11
2018-08-16T09:38:09.182Z,101194.61
2018-08-16T09:40:38.482Z,101190.56
2018-08-16T09:43:07.831Z,101191.23
2018-08-16T09:46:49.876Z,101193.85
2018-08-16T09:49:19.423Z,101188.90
2018-08-16T09:51:48.979Z,101191.78
2018-08-16T09:54:18.185Z,101175.15
2018-08-16T09:56:48.041Z,101169.27
2018-08-16T09:59:17.852Z,101183.70
2018-08-16T10:01:47.202Z,101181.00
2018-08-16T10:04:16.654Z,101178.69
2018-08-16T10:06:46.453Z,101171.16
2018-08-16T10:09:22.090Z,101174.26
2018-08-16T10:11:51.772Z,101172.47
2018-08-16T10:14:23.157Z,101174.31
2018-08-16T10:16:52.906Z,101177.81
2018-08-16T10:19:23.101Z,101165.23
2018-08-16T10:21:52.469Z,101158.00
2018-08-16T10:24:22.310Z,101163.52
2018-08-16T10:26:51.758Z,101161.91
2018-08-16T10:29:22.534Z,101161.81
2018-08-16T10:31:52.930Z,101163.66
2018-08-16T10:34:24.301Z,101159.56
2018-08-16T10:36:53.904Z,101158.74
2018-08-16T10:39:23.329Z,101161.59
2018-08-16T10:41:52.682Z,101162.75
2018-08-16T10:44:22.271Z,101163.62
2018-08-16T10:46:51.444Z,101167.22
2018-08-16T10:49:20.873Z,101165.26
2018-08-16T10:51:50.246Z,101162.37
2018-08-16T10:54:19.525Z,101171.05
2018-08-16T10:56:48.875Z,101171.34
2018-08-16T10:59:18.815Z,101166.70
2018-08-16T11:01:48.091Z,101173.27
2018-08-16T11:04:17.595Z,101162.70
2018-08-16T11:06:47.015Z,101156.91
2018-08-16T11:09:16.422Z,101155.72
2018-08-16T11:11:46.549Z,101162.14
2018-08-16T11:14:16.265Z,101159.39
2018-08-16T11:16:45.526Z,101173.28
2018-08-16T11:19:15.053Z,101170.62
2018-08-16T11:21:44.310Z,101171.50
2018-08-16T11:24:13.676Z,101166.53
2018-08-16T11:26:43.097Z,101160.61
2018-08-16T11:29:12.682Z,101155.99
2018-08-16T11:31:42.021Z,101154.67
2018-08-16T11:34:11.356Z,101154.77
2018-08-16T11:36:40.689Z,101152.98
2018-08-16T11:39:10.069Z,101147.84
2018-08-16T11:41:39.738Z,101138.08
2018-08-16T11:44:09.077Z,101136.65
2018-08-16T11:46:38.506Z,101147.97
2018-08-16T11:49:07.725Z,101139.56
2018-08-16T11:51:37.500Z,101126.97
2018-08-16T11:54:07.440Z,101132.84
2018-08-16T11:56:37.136Z,101136.30
2018-08-16T11:59:06.753Z,101132.59
2018-08-16T12:01:36.408Z,101121.37
2018-08-16T12:04:06.580Z,101126.22
2018-08-16T12:06:36.122Z,101129.00
2018-08-16T12:09:08.442Z,101139.77
2018-08-16T12:11:38.037Z,101134.30
2018-08-16T12:14:07.627Z,101124.94
2018-08-16T12:16:37.277Z,101133.55
2018-08-16T12:19:06.832Z,101123.56
2018-08-16T12:21:36.209Z,101119.45
2018-08-16T12:24:05.694Z,101127.03
2018-08-16T12:26:35.410Z,101123.47
2018-08-16T12:29:04.936Z,101120.76
2018-08-16T12:31:34.342Z,101123.88
2018-08-16T12:34:03.834Z,101124.20
2018-08-16T12:36:33.198Z,101118.53
2018-08-16T12:39:02.870Z,101122.23
2018-08-16T12:41:32.310Z,101118.65
2018-08-16T12:44:01.924Z,101116.87
2018-08-16T12:46:31.936Z,101119.81
2018-08-16T12:49:01.327Z,101116.61
2018-08-16T12:51:30.839Z,101111.22
2018-08-16T12:54:00.377Z,101096.69
2018-08-16T12:56:29.812Z,101094.77
2018-08-16T12:58:59.332Z,101091.59
2018-08-16T13:01:28.735Z,101102.53
2018-08-16T13:03:58.645Z,101104.02
2018-08-16T13:06:28.154Z,101101.25
2018-08-16T13:08:57.724Z,101095.31
2018-08-16T13:11:27.447Z,101090.47
2018-08-16T13:13:56.873Z,101100.70
2018-08-16T13:16:26.862Z,101084.25
2018-08-16T13:18:56.422Z,101094.87
2018-08-16T13:21:26.005Z,101086.38
2018-08-16T13:23:55.513Z,101089.47
2018-08-16T13:26:25.079Z,101087.55
2018-08-16T13:28:54.437Z,101079.62
2018-08-16T13:31:24.102Z,101090.50
2018-08-16T13:33:53.362Z,101075.36
2018-08-16T13:36:24.392Z,101076.09
2018-08-16T13:38:53.920Z,101072.48
2018-08-16T13:41:23.371Z,101070.13
2018-08-16T13:43:53.268Z,101068.98
2018-08-16T13:46:23.634Z,101071.16
2018-08-16T13:48:53.026Z,101068.09
2018-08-16T13:51:22.422Z,101065.44
2018-08-16T13:53:52.786Z,101069.56
2018-08-16T13:56:22.532Z,101070.17
2018-08-16T13:58:51.900Z,101061.55
2018-08-16T14:01:21.260Z,101060.52
2018-08-16T14:03:50.558Z,101058.27
2018-08-16T14:06:19.817Z,101058.33
2018-08-16T14:08:49.202Z,101056.38
2018-08-16T14:11:18.442Z,101053.14
2018-08-16T14:13:48.026Z,101056.34
2018-08-16T14:16:17.461Z,101057.41
2018-08-16T14:18:46.727Z,101059.53
2018-08-16T14:21:16.026Z,101056.88
2018-08-16T14:23:45.669Z,101054.77
2018-08-16T14:26:14.973Z,101053.38
2018-08-16T14:28:44.226Z,101049.23
2018-08-16T14:31:13.594Z,101055.06
2018-08-16T14:33:42.950Z,101056.66
2018-08-16T14:36:12.232Z,101051.48
2018-08-16T14:38:41.728Z,101047.33
2018-08-16T14:41:11.048Z,101045.12
2018-08-16T14:43:41.098Z,101039.48
2018-08-16T14:46:10.436Z,101040.67
2018-08-16T14:48:39.799Z,101044.42
2018-08-16T14:51:09.072Z,101036.66
2018-08-16T14:53:38.746Z,101038.91
2018-08-16T14:56:08.210Z,101037.37
2018-08-16T14:58:37.939Z,101032.97
2018-08-16T15:01:07.469Z,101029.61
2018-08-16T15:05:01.986Z,101037.36
2018-08-16T15:07:31.385Z,101041.91
2018-08-16T15:10:00.980Z,101039.52
2018-08-16T15:12:30.789Z,101034.64
2018-08-16T15:15:00.704Z,101030.28
2018-08-16T15:17:30.261Z,101034.80
2018-08-16T15:20:04.770Z,101034.65
2018-08-16T15:22:34.258Z,101043.83
2018-08-16T15:25:03.996Z,101041.89
2018-08-16T15:27:33.661Z,101031.95
2018-08-16T15:30:03.209Z,101032.29
2018-08-16T15:32:32.793Z,101030.70
2018-08-16T15:35:02.430Z,101035.09
2018-08-16T15:37:32.765Z,101030.17
2018-08-16T15:40:02.406Z,101029.57
2018-08-16T15:42:32.128Z,101032.33
2018-08-16T15:45:01.678Z,101030.17
2018-08-16T15:47:31.172Z,101033.63
2018-08-16T15:50:01.484Z,101030.42
2018-08-16T15:52:31.120Z,101034.54
2018-08-16T15:55:01.004Z,101026.74
2018-08-16T15:57:30.524Z,101033.32
2018-08-16T16:00:00.313Z,101034.92
2018-08-16T16:02:30.127Z,101039.72
2018-08-16T16:04:59.849Z,101034.80
2018-08-16T16:07:29.478Z,101031.59
2018-08-16T16:09:59.105Z,101033.99
2018-08-16T16:12:28.698Z,101044.10
2018-08-16T16:14:59.872Z,101031.50
2018-08-16T16:17:29.645Z,101036.09
2018-08-16T16:19:59.438Z,101035.39
2018-08-16T16:22:29.115Z,101029.63
2018-08-16T16:24:58.674Z,101033.33
2018-08-16T16:27:28.128Z,101029.13
2018-08-16T16:29:57.608Z,101025.33
2018-08-16T16:32:27.381Z,101029.83
2018-08-16T16:34:56.846Z,101026.63
2018-08-16T16:37:26.225Z,101016.60
2018-08-16T16:39:55.713Z,101022.66
2018-08-16T16:42:25.200Z,101023.35
2018-08-16T16:44:54.522Z,101030.80
2018-08-16T16:47:23.898Z,101032.42
2018-08-16T16:49:53.200Z,101026.18
2018-08-16T16:52:22.489Z,101024.53
2018-08-16T16:54:51.893Z,101025.91
2018-08-16T16:57:21.275Z,101023.06
2018-08-16T16:59:50.558Z,101028.77
2018-08-16T17:02:19.888Z,101016.31
2018-08-16T17:04:49.279Z,101019.47
2018-08-16T17:07:18.701Z,101019.14
2018-08-16T17:09:48.100Z,101016.92
2018-08-16T17:12:17.464Z,101018.82
2018-08-16T17:14:46.879Z,101022.73
2018-08-16T17:17:16.550Z,101030.72
2018-08-16T17:19:45.850Z,101032.70
2018-08-16T17:22:15.194Z,101033.73
2018-08-16T17:24:44.683Z,101033.28
2018-08-16T17:27:14.217Z,101035.89
2018-08-16T17:29:43.538Z,101029.39
2018-08-16T17:32:13.517Z,101030.80
2018-08-16T17:34:42.781Z,101037.78
2018-08-16T17:37:12.116Z,101036.69
2018-08-16T17:39:41.528Z,101040.13
2018-08-16T17:42:11.038Z,101039.06
2018-08-16T17:44:43.101Z,101039.90
2018-08-16T17:47:12.851Z,101041.33
2018-08-16T17:49:42.287Z,101045.70
2018-08-16T17:52:11.677Z,101042.19
2018-08-16T17:54:40.939Z,101047.00
2018-08-16T17:57:10.265Z,101050.86
2018-08-16T17:59:39.817Z,101044.53
2018-08-16T18:02:09.357Z,101057.13
2018-08-16T18:04:38.801Z,101060.91
2018-08-16T18:07:08.613Z,101060.70
2018-08-16T18:09:38.231Z,101061.47
2018-08-16T18:12:07.798Z,101065.16
2018-08-16T18:14:37.560Z,101068.25
2018-08-16T18:17:07.230Z,101067.04
2018-08-16T18:19:38.944Z,101073.67
2018-08-16T18:22:08.844Z,101075.14
2018-08-16T18:24:38.525Z,101075.02
2018-08-16T18:27:08.206Z,101075.97
2018-08-16T18:29:43.956Z,101076.33
2018-08-16T18:32:13.320Z,101072.81
2018-08-16T18:34:42.945Z,101078.47
2018-08-16T18:37:12.233Z,101081.98
2018-08-16T18:39:41.650Z,101087.15
2018-08-16T18:42:11.719Z,101091.56
2018-08-16T18:44:41.065Z,101089.22
2018-08-16T18:48:34.949Z,101087.73
2018-08-16T18:51:05.117Z,101088.55
2018-08-16T18:53:39.381Z,101098.42
2018-08-16T18:56:09.186Z,101101.37
2018-08-16T18:58:38.994Z,101094.92
2018-08-16T19:01:08.544Z,101092.36
2018-08-16T19:03:48.550Z,101093.63
2018-08-16T19:06:18.600Z,101099.84
2018-08-16T19:08:47.911Z,101095.52
2018-08-16T19:11:17.388Z,101100.36
2018-08-16T19:13:46.676Z,101100.02
2018-08-16T19:16:16.170Z,101102.09
2018-08-16T19:18:45.449Z,101107.40
2018-08-16T19:21:14.795Z,101110.63
2018-08-16T19:23:44.281Z,101113.32
2018-08-16T19:26:13.543Z,101110.39
2018-08-16T19:28:42.840Z,101109.55
2018-08-16T19:31:13.029Z,101105.36
2018-08-16T19:33:42.264Z,101100.83
2018-08-16T19:36:11.868Z,101106.12
2018-08-16T19:38:41.364Z,101101.37
2018-08-16T19:41:10.894Z,101100.08
2018-08-16T19:43:40.240Z,101103.12
2018-08-16T19:46:09.833Z,101100.44
2018-08-16T19:48:40.711Z,101101.64
2018-08-16T19:51:10.165Z,101100.46
2018-08-16T19:53:39.943Z,101098.74
2018-08-16T19:56:09.545Z,101103.16
2018-08-16T19:58:39.150Z,101106.21
2018-08-16T20:01:08.716Z,101102.95
2018-08-16T20:03:38.103Z,101100.02
2018-08-16T20:06:08.639Z,101103.73
2018-08-16T20:08:38.762Z,101099.65
2018-08-16T20:11:09.569Z,101106.61
2018-08-16T20:13:40.895Z,101103.19
2018-08-16T20:16:16.642Z,101103.55
2018-08-16T20:18:49.670Z,101108.81
2018-08-16T20:21:19.589Z,101105.80
2018-08-16T20:23:48.931Z,101107.73
2018-08-16T20:26:18.246Z,101104.87
2018-08-16T20:28:47.821Z,101109.29
2018-08-16T20:31:17.493Z,101104.20
2018-08-16T20:33:47.145Z,101106.25
2018-08-16T20:36:16.560Z,101105.79
2018-08-16T20:38:46.021Z,101113.79
2018-08-16T20:41:15.392Z,101114.16
2018-08-16T20:43:45.446Z,101108.04
2018-08-16T20:46:14.886Z,101111.95
2018-08-16T20:48:44.259Z,101112.14
2018-08-16T20:51:13.655Z,101115.36
2018-08-16T20:53:43.113Z,101118.09
2018-08-16T20:56:12.679Z,101126.57
2018-08-16T20:58:42.296Z,101126.05
2018-08-16T21:01:12.299Z,101128.91
2018-08-16T21:03:42.289Z,101137.00
2018-08-16T21:06:11.973Z,101141.59
2018-08-16T21:08:41.590Z,101138.67
2018-08-16T21:11:11.454Z,101137.48
2018-08-16T21:13:41.004Z,101140.68
2018-08-16T21:16:10.406Z,101147.98
2018-08-16T21:18:40.697Z,101151.71
2018-08-16T21:21:12.389Z,101155.78
2018-08-16T21:23:41.695Z,101155.75
2018-08-16T21:26:12.113Z,101156.25
2018-08-16T21:28:41.796Z,101171.31
2018-08-16T21:31:11.417Z,101159.94
2018-08-16T21:33:40.909Z,101167.53
2018-08-16T21:36:10.596Z,101165.45
2018-08-16T21:38:40.657Z,101167.14
2018-08-16T21:41:10.444Z,101173.92
2018-08-16T21:43:40.128Z,101179.00
2018-08-16T21:46:10.201Z,101179.78
2018-08-16T21:48:39.736Z,101179.52
2018-08-16T21:51:09.295Z,101179.36
2018-08-16T21:53:38.738Z,101180.70
2018-08-16T21:56:08.987Z,101175.78
2018-08-16T21:58:38.827Z,101175.96
2018-08-16T22:01:08.812Z,101177.84
2018-08-16T22:03:38.225Z,101179.51
2018-08-16T22:06:09.907Z,101178.84
2018-08-16T22:08:40.980Z,101177.44
2018-08-16T22:11:10.637Z,101178.28
2018-08-16T22:13:40.467Z,101176.39
2018-08-16T22:16:10.264Z,101179.56
2018-08-16T22:18:40.318Z,101177.03
2018-08-16T22:21:10.396Z,101176.85
2018-08-16T22:23:40.104Z,101181.77
2018-08-16T22:26:10.057Z,101188.53
2018-08-16T22:28:39.735Z,101190.55
2018-08-16T22:31:09.438Z,101188.53
2018-08-16T22:33:38.913Z,101181.08
2018-08-16T22:36:08.807Z,101184.45
2018-08-16T22:38:38.399Z,101184.58
2018-08-16T22:41:07.805Z,101178.70
2018-08-16T22:43:37.265Z,101183.45
2018-08-16T22:46:08.653Z,101182.60
2018-08-16T22:48:38.240Z,101178.01
2018-08-16T22:51:07.749Z,101171.88
2018-08-16T22:53:37.241Z,101175.59
2018-08-16T22:56:07.270Z,101176.24
2018-08-16T22:58:36.671Z,101173.48
2018-08-16T23:01:06.275Z,101173.45
2018-08-16T23:03:37.076Z,101169.05
2018-08-16T23:06:06.578Z,101165.94
2018-08-16T23:08:36.144Z,101162.20
2018-08-16T23:11:05.815Z,101166.45
2018-08-16T23:13:35.094Z,101163.73
2018-08-16T23:16:04.542Z,101168.04
2018-08-16T23:18:34.285Z,101165.19
2018-08-16T23:35:22.496Z,101170.23
2018-08-16T23:37:51.784Z,101174.61
2018-08-16T23:40:21.252Z,101172.02
2018-08-16T23:42:50.964Z,101163.90
2018-08-16T23:45:20.445Z,101165.25
2018-08-16T23:48:01.179Z,101157.27
2018-08-16T23:50:31.059Z,101161.19
2018-08-16T23:53:00.806Z,101160.60
2018-08-16T23:55:30.921Z,101152.29
2018-08-16T23:58:00.748Z,101154.66
